Time;durP1;ratioP1;P1;durP2;ratioP2;P2;SDS_P1;SDS_P2;PMS_P1;PMS_P2;Temp;Humidity;BMP_temperature;BMP_pressure;BME280_temperature;BME280_humidity;BME280_pressure;Samples;Min_cycle;Max_cycle;Signal;HPM_P1;HPM_P2
2021/09/29 00:00:44;;;;;;;;;;;;;;;22.07;58.76;101623.88;5094852;28;1684;-42
2021/09/29 00:03:10;;;;;;;;;;;;;;;22.09;58.69;101624.59;5095125;28;1516;-41
2021/09/29 00:05:38;;;;;;;;;;;;;;;22.09;58.87;101640.75;5094879;28;1181;-41
2021/09/29 00:08:05;;;;;;;;;;;;;;;22.08;58.72;101633.66;5095017;28;1902;-41
2021/09/29 00:10:32;;;;;;;;;;;;;;;22.03;58.44;101642.16;5095035;28;1484;-41
2021/09/29 00:12:58;;;;;;;;;;;;;;;22.09;58.53;101639.91;5094956;28;2046;-41
2021/09/29 00:15:25;;;;;;;;;;;;;;;22.10;58.79;101642.44;5093602;28;1106;-41
2021/09/29 00:17:52;;;;;;;;;;;;;;;22.07;58.35;101642.75;5094693;28;1835;-41
2021/09/29 00:20:19;;;;;;;;;;;;;;;22.05;58.51;101626.69;5085875;28;1971;-41
2021/09/29 00:22:45;;;;;;;;;;;;;;;22.08;58.52;101633.66;5094280;28;1808;-41
2021/09/29 00:25:13;;;;;;;;;;;;;;;22.05;58.56;101620.47;5094889;28;1815;-42
2021/09/29 00:27:40;;;;;;;;;;;;;;;22.05;58.49;101633.94;5095686;28;1910;-41
2021/09/29 00:30:08;;;;;;;;;;;;;;;22.03;58.43;101628.69;5094328;28;2120;-41
2021/09/29 00:32:38;;;;;;;;;;;;;;;22.04;58.88;101632.22;5094256;28;2097;-41
2021/09/29 00:35:06;;;;;;;;;;;;;;;22.01;58.52;101619.03;5094434;28;1710;-41
2021/09/29 00:37:33;;;;;;;;;;;;;;;22.01;58.15;101635.19;5094210;28;1623;-41
2021/09/29 00:39:59;;;;;;;;;;;;;;;22.04;58.84;101626.84;5095592;28;1042;-41
2021/09/29 00:42:26;;;;;;;;;;;;;;;22.02;58.85;101640.47;5094327;28;1629;-41
2021/09/29 00:44:52;;;;;;;;;;;;;;;22.04;58.87;101637.59;5094449;28;1839;-42
2021/09/29 00:47:19;;;;;;;;;;;;;;;22.04;58.76;101637.59;5094024;28;1911;-41
2021/09/29 00:49:45;;;;;;;;;;;;;;;22.05;58.75;101639.31;5094204;28;1991;-41
2021/09/29 00:52:13;;;;;;;;;;;;;;;22.01;58.73;101641.44;5095383;28;1087;-41
2021/09/29 00:54:40;;;;;;;;;;;;;;;22.04;58.68;101624.13;5094140;28;1816;-41
2021/09/29 00:57:07;;;;;;;;;;;;;;;22.02;58.89;101640.47;5094124;28;1806;-41
2021/09/29 00:59:33;;;;;;;;;;;;;;;22.01;59.07;101627.13;5093823;28;1560;-41
2021/09/29 01:02:00;;;;;;;;;;;;;;;22.03;58.84;101639.44;5093543;28;1609;-41
2021/09/29 01:04:27;;;;;;;;;;;;;;;22.02;59.00;101639.59;5093975;28;1634;-41
2021/09/29 01:06:57;;;;;;;;;;;;;;;22.00;58.78;101628.97;5094737;28;1967;-41
2021/09/29 01:09:31;;;;;;;;;;;;;;;22.04;58.63;101626.84;5093816;28;2016;-41
2021/09/29 01:12:01;;;;;;;;;;;;;;;22.01;58.76;101625.28;5089455;28;1662;-41
2021/09/29 01:14:29;;;;;;;;;;;;;;;22.03;58.94;101636.75;5093565;28;1716;-41
2021/09/29 01:16:57;;;;;;;;;;;;;;;22.01;58.08;101643.28;5093982;28;2004;-41
2021/09/29 01:19:30;;;;;;;;;;;;;;;22.01;58.52;101630.66;5093726;28;979;-41
2021/09/29 01:22:02;;;;;;;;;;;;;;;22.01;58.76;101635.19;5094175;28;1007;-40
2021/09/29 01:24:36;;;;;;;;;;;;;;;22.04;58.56;101643.00;5093408;28;1773;-41
2021/09/29 01:27:04;;;;;;;;;;;;;;;22.01;58.66;101641.44;5089647;28;1914;-41
2021/09/29 01:29:31;;;;;;;;;;;;;;;21.97;58.62;101641.84;5093443;28;2078;-41
2021/09/29 01:31:58;;;;;;;;;;;;;;;21.96;58.42;101643.66;5093035;28;1911;-41
2021/09/29 01:34:24;;;;;;;;;;;;;;;21.99;58.46;101645.25;5093200;28;2031;-41
2021/09/29 01:36:51;;;;;;;;;;;;;;;22.01;58.71;101648.66;5094584;28;1080;-41
2021/09/29 01:39:24;;;;;;;;;;;;;;;22.01;58.69;101637.88;5093049;28;1844;-41
2021/09/29 01:41:51;;;;;;;;;;;;;;;22.00;58.39;101657.72;5093393;28;1843;-41
2021/09/29 01:44:19;;;;;;;;;;;;;;;22.00;58.90;101650.50;5093161;28;2333;-41
2021/09/29 01:46:46;;;;;;;;;;;;;;;22.00;58.84;101652.31;5093276;28;1913;-41
2021/09/29 01:49:15;;;;;;;;;;;;;;;22.01;58.80;101659.44;5092694;28;1653;-41
2021/09/29 01:51:43;;;;;;;;;;;;;;;22.03;58.42;101662.84;5094315;28;1082;-41
2021/09/29 01:54:11;;;;;;;;;;;;;;;21.99;58.20;101647.94;5092394;28;1648;-41
2021/09/29 01:56:39;;;;;;;;;;;;;;;21.99;58.83;101648.78;5093021;28;1677;-42
2021/09/29 01:59:06;;;;;;;;;;;;;;;21.96;58.45;101649.03;5093217;28;1723;-41
2021/09/29 02:01:42;;;;;;;;;;;;;;;21.99;58.32;101639.88;5179024;22;3712;-44
2021/09/29 02:04:25;;;;;;;;;;;;;;;22.00;58.91;101638.88;5041382;28;1591;-42
2021/09/29 02:06:53;;;;;;;;;;;;;;;22.01;58.68;101652.19;5035004;28;1980;-42
2021/09/29 02:09:24;;;;;;;;;;;;;;;21.98;58.53;101646.22;5039459;28;1966;-42
2021/09/29 02:12:09;;;;;;;;;;;;;;;22.00;58.58;101652.31;5033203;28;1736;-42
2021/09/29 02:14:36;;;;;;;;;;;;;;;22.03;58.50;101657.47;5022531;28;1966;-42
2021/09/29 02:17:12;;;;;;;;;;;;;;;21.97;58.63;101658.84;5031324;28;1761;-42
2021/09/29 02:19:39;;;;;;;;;;;;;;;21.98;58.38;101663.22;5041252;28;1081;-42
2021/09/29 02:22:07;;;;;;;;;;;;;;;22.03;58.44;101674.47;5024604;28;1958;-42
2021/09/29 02:24:34;;;;;;;;;;;;;;;22.02;58.44;101670.09;5034033;28;1849;-42
2021/09/29 02:27:04;;;;;;;;;;;;;;;21.98;58.34;101652.47;5034740;28;1981;-42
2021/09/29 02:29:34;;;;;;;;;;;;;;;21.97;58.13;101658.84;5048992;28;1800;-42
2021/09/29 02:32:03;;;;;;;;;;;;;;;21.99;58.51;101656.88;5048041;28;2385;-42
2021/09/29 02:34:31;;;;;;;;;;;;;;;21.96;58.36;101661.66;5042684;28;1960;-42
2021/09/29 02:36:58;;;;;;;;;;;;;;;21.96;58.74;101657.13;5013795;28;1042;-42
2021/09/29 02:39:28;;;;;;;;;;;;;;;21.99;58.63;101664.09;5043264;28;1823;-42
2021/09/29 02:41:56;;;;;;;;;;;;;;;21.97;58.80;101653.47;5018363;28;1839;-43
2021/09/29 02:44:26;;;;;;;;;;;;;;;21.96;58.55;101658.97;5026582;28;1784;-42
2021/09/29 02:46:56;;;;;;;;;;;;;;;22.01;58.00;101662.13;5040352;28;1972;-42
2021/09/29 02:49:27;;;;;;;;;;;;;;;21.99;58.17;101669.50;5037706;28;1816;-42
2021/09/29 02:52:01;;;;;;;;;;;;;;;21.99;58.50;101656.88;5032431;28;1065;-42
2021/09/29 02:54:31;;;;;;;;;;;;;;;22.01;58.64;101651.34;5046636;28;2153;-42
2021/09/29 02:56:59;;;;;;;;;;;;;;;22.00;58.67;101660.41;5013042;28;1582;-43
2021/09/29 02:59:29;;;;;;;;;;;;;;;21.99;58.82;101664.09;5029697;28;1923;-42
2021/09/29 03:01:56;;;;;;;;;;;;;;;21.97;58.62;101669.63;5029926;28;1956;-42
2021/09/29 03:04:24;;;;;;;;;;;;;;;22.00;58.57;101669.38;5032000;28;1566;-42
2021/09/29 03:06:51;;;;;;;;;;;;;;;21.98;58.66;101649.75;5035411;28;1235;-42
2021/09/29 03:09:19;;;;;;;;;;;;;;;21.98;58.52;101654.31;5034457;28;1685;-42
2021/09/29 03:11:47;;;;;;;;;;;;;;;21.94;58.98;101658.25;5030955;28;1644;-42
2021/09/29 03:14:14;;;;;;;;;;;;;;;21.94;58.87;101653.72;5035130;28;1774;-42
2021/09/29 03:16:43;;;;;;;;;;;;;;;21.95;58.81;101659.97;5035728;28;1071;-42
2021/09/29 03:19:10;;;;;;;;;;;;;;;21.97;58.61;101658.84;5036625;28;2055;-42
2021/09/29 03:21:40;;;;;;;;;;;;;;;21.97;58.89;101660.69;5019537;28;1865;-43
2021/09/29 03:24:09;;;;;;;;;;;;;;;21.99;58.82;101661.41;5028929;28;1856;-42
2021/09/29 03:26:41;;;;;;;;;;;;;;;21.96;58.41;101654.44;5035468;28;2009;-42
2021/09/29 03:29:11;;;;;;;;;;;;;;;21.97;58.39;101661.53;5038239;28;1906;-43
2021/09/29 03:31:41;;;;;;;;;;;;;;;21.97;58.82;101653.47;5040827;28;1661;-42
2021/09/29 03:34:10;;;;;;;;;;;;;;;21.95;58.33;101658.13;5043050;28;1835;-42
2021/09/29 03:36:38;;;;;;;;;;;;;;;21.98;58.50;101655.16;5035302;28;1150;-42
2021/09/29 03:39:13;;;;;;;;;;;;;;;21.98;58.76;101665.91;5021873;28;1946;-42
2021/09/29 03:41:55;;;;;;;;;;;;;;;21.96;58.83;101667.91;5032306;28;1863;-42
2021/09/29 03:44:30;;;;;;;;;;;;;;;21.96;58.64;101664.34;5034274;28;1661;-42
2021/09/29 03:47:05;;;;;;;;;;;;;;;21.96;58.90;101667.06;5031353;28;1953;-42
2021/09/29 03:49:34;;;;;;;;;;;;;;;22.00;58.78;101673.88;5030821;28;1681;-43
2021/09/29 03:52:04;;;;;;;;;;;;;;;21.95;58.26;101666.22;5035096;28;1121;-42
2021/09/29 03:54:35;;;;;;;;;;;;;;;21.95;58.66;101673.44;5018490;28;1932;-42
2021/09/29 03:57:03;;;;;;;;;;;;;;;21.95;58.43;101670.75;5022154;28;2016;-44
2021/09/29 03:59:35;;;;;;;;;;;;;;;21.96;58.57;101656.28;5030216;28;1757;-43
2021/09/29 04:02:03;;;;;;;;;;;;;;;21.93;58.71;101668.19;5045122;28;1762;-42
2021/09/29 04:04:30;;;;;;;;;;;;;;;21.94;58.75;101669.88;5046347;28;1708;-42
2021/09/29 04:07:00;;;;;;;;;;;;;;;21.95;58.80;101673.44;5052975;28;1789;-43
2021/09/29 04:09:29;;;;;;;;;;;;;;;21.94;58.82;101682.50;5040361;28;2055;-42
2021/09/29 04:11:56;;;;;;;;;;;;;;;21.94;58.43;101682.50;5026914;28;994;-43
2021/09/29 04:14:23;;;;;;;;;;;;;;;21.93;58.82;101675.41;5046102;28;1865;-42
2021/09/29 04:16:55;;;;;;;;;;;;;;;21.93;58.57;101683.50;5054434;28;1282;-43
2021/09/29 04:19:23;;;;;;;;;;;;;;;21.94;58.68;101686.03;5015122;28;1025;-42
2021/09/29 04:21:52;;;;;;;;;;;;;;;21.96;58.84;101683.22;5050180;28;2044;-42
2021/09/29 04:24:20;;;;;;;;;;;;;;;21.95;58.18;101684.22;5037976;28;1657;-42
2021/09/29 04:26:51;;;;;;;;;;;;;;;21.96;58.48;101686.75;5031763;28;1731;-42
2021/09/29 04:29:18;;;;;;;;;;;;;;;21.93;58.56;101686.19;5034332;28;2105;-41
2021/09/29 04:31:46;;;;;;;;;;;;;;;21.93;58.51;101699.66;5047910;28;1828;-43
2021/09/29 04:34:15;;;;;;;;;;;;;;;21.93;58.65;101688.88;5041273;28;1971;-42
2021/09/29 04:36:46;;;;;;;;;;;;;;;21.96;58.47;101688.59;5034509;28;1003;-42
2021/09/29 04:39:17;;;;;;;;;;;;;;;21.96;58.73;101700.22;5020571;28;1984;-43
2021/09/29 04:41:44;;;;;;;;;;;;;;;21.99;58.43;101693.72;5034818;28;1948;-44
2021/09/29 04:44:14;;;;;;;;;;;;;;;21.98;58.67;101702.78;5024691;28;1623;-42
2021/09/29 04:46:44;;;;;;;;;;;;;;;21.96;58.60;101702.06;5025111;28;1954;-42
2021/09/29 04:49:11;;;;;;;;;;;;;;;21.96;58.58;101708.28;5032454;28;1973;-42
2021/09/29 04:51:39;;;;;;;;;;;;;;;21.93;58.10;101705.03;5014349;28;1130;-43
2021/09/29 04:54:07;;;;;;;;;;;;;;;21.91;58.87;101704.31;5015200;28;1567;-42
2021/09/29 04:56:34;;;;;;;;;;;;;;;21.95;58.75;101713.84;5022296;28;1729;-42
2021/09/29 04:59:04;;;;;;;;;;;;;;;21.94;58.82;101710.25;5033663;28;1712;-42
2021/09/29 05:01:30;;;;;;;;;;;;;;;21.91;58.53;101707.00;5027629;28;1895;-42
2021/09/29 05:03:58;;;;;;;;;;;;;;;21.92;58.64;101714.09;5019959;28;1845;-42
2021/09/29 05:06:30;;;;;;;;;;;;;;;21.92;58.59;101706.00;5033866;28;1081;-42
2021/09/29 05:09:03;;;;;;;;;;;;;;;21.92;58.86;101703.31;5036048;28;1902;-42
2021/09/29 05:11:41;;;;;;;;;;;;;;;21.94;58.35;101712.13;5032791;28;1852;-42
2021/09/29 05:14:08;;;;;;;;;;;;;;;21.96;58.71;101710.13;5039163;28;1649;-41
2021/09/29 05:16:40;;;;;;;;;;;;;;;21.89;58.35;101711.66;5053579;28;1077;-42
2021/09/29 05:19:06;;;;;;;;;;;;;;;21.92;58.89;101708.69;5028403;28;1647;-42
2021/09/29 05:21:47;;;;;;;;;;;;;;;21.93;58.77;101711.28;5032285;28;1855;-42
2021/09/29 05:24:20;;;;;;;;;;;;;;;21.94;58.54;101718.34;5046764;28;1906;-42
2021/09/29 05:26:50;;;;;;;;;;;;;;;21.93;58.51;101713.97;5021335;28;1806;-42
2021/09/29 05:29:18;;;;;;;;;;;;;;;21.93;58.63;101715.81;5016335;28;1973;-42
2021/09/29 05:31:46;;;;;;;;;;;;;;;21.91;58.88;101709.69;5026895;28;1665;-42
2021/09/29 05:34:12;;;;;;;;;;;;;;;21.95;58.64;101732.69;5031721;28;1684;-42
2021/09/29 05:36:41;;;;;;;;;;;;;;;21.95;58.87;101735.38;5033209;28;1148;-43
2021/09/29 05:39:09;;;;;;;;;;;;;;;21.93;58.88;101724.72;5019900;28;1960;-43
2021/09/29 05:41:41;;;;;;;;;;;;;;;21.90;58.82;101733.06;5013834;28;1682;-43
2021/09/29 05:44:08;;;;;;;;;;;;;;;21.90;58.50;101740.28;5016331;28;1705;-42
2021/09/29 05:46:39;;;;;;;;;;;;;;;21.85;58.57;101730.78;5035786;28;1921;-43
2021/09/29 05:49:09;;;;;;;;;;;;;;;21.94;58.42;101739.88;5042952;28;1949;-41
2021/09/29 05:51:47;;;;;;;;;;;;;;;21.93;58.71;101737.34;5013345;28;1023;-42
2021/09/29 05:54:14;;;;;;;;;;;;;;;21.94;58.82;101744.44;5040613;28;1833;-42
2021/09/29 05:56:54;;;;;;;;;;;;;;;21.88;58.73;101739.56;5039197;28;1838;-42
2021/09/29 05:59:24;;;;;;;;;;;;;;;21.89;58.27;101736.75;5024647;28;1760;-42
2021/09/29 06:01:53;;;;;;;;;;;;;;;21.90;58.81;101760.00;5034762;28;1650;-42
2021/09/29 06:04:23;;;;;;;;;;;;;;;21.90;58.91;101748.38;5040726;28;1769;-42
2021/09/29 06:09:34;;;;;;;;;;;;;;;21.87;58.48;101767.50;5031755;28;2456;-42
2021/09/29 06:12:07;;;;;;;;;;;;;;;21.87;58.28;101760.28;5040768;28;1672;-44
2021/09/29 06:14:39;;;;;;;;;;;;;;;21.88;58.75;101761.13;5018436;28;1720;-42
2021/09/29 06:17:13;;;;;;;;;;;;;;;21.89;58.38;101746.69;5013769;28;1852;-44
2021/09/29 06:19:43;;;;;;;;;;;;;;;21.87;58.16;101759.41;5048363;28;1478;-43
2021/09/29 06:22:11;;;;;;;;;;;;;;;21.91;58.71;101766.25;5052276;28;1046;-42
2021/09/29 06:24:42;;;;;;;;;;;;;;;21.91;58.88;101766.25;5017036;28;1710;-43
2021/09/29 06:27:24;;;;;;;;;;;;;;;21.91;58.32;101768.94;5029993;28;1646;-41
2021/09/29 06:29:54;;;;;;;;;;;;;;;21.89;58.29;101769.06;5029999;28;1906;-42
2021/09/29 06:35:04;;;;;;;;;;;;;;;21.89;58.46;101769.06;5029196;28;2492;-42
2021/09/29 06:37:39;;;;;;;;;;;;;;;21.90;58.00;101770.75;5031982;28;1958;-43
2021/09/29 06:40:10;;;;;;;;;;;;;;;21.90;58.34;101765.38;5015141;28;1985;-43
2021/09/29 06:42:49;;;;;;;;;;;;;;;21.90;58.38;101769.91;5016846;28;1131;-43
2021/09/29 06:45:24;;;;;;;;;;;;;;;21.92;58.79;101784.94;5041098;28;1082;-42
2021/09/29 06:47:52;;;;;;;;;;;;;;;21.89;58.27;101768.22;5021550;28;1046;-41
2021/09/29 06:50:23;;;;;;;;;;;;;;;21.91;58.71;101771.63;5040922;28;1902;-42
2021/09/29 06:52:53;;;;;;;;;;;;;;;21.89;58.73;101784.38;5034024;28;1986;-43
2021/09/29 06:55:22;;;;;;;;;;;;;;;21.86;58.39;101774.69;5018676;28;1758;-42
2021/09/29 06:57:59;;;;;;;;;;;;;;;21.88;58.69;101782.66;5035244;28;1803;-43
2021/09/29 07:00:47;;;;;;;;;;;;;;;21.87;58.11;101779.13;5044197;28;1688;-44
2021/09/29 07:03:22;;;;;;;;;;;;;;;21.85;58.49;101784.63;5024976;28;1752;-42
2021/09/29 07:05:50;;;;;;;;;;;;;;;21.85;58.83;101784.63;5036431;28;1114;-42
2021/09/29 07:08:17;;;;;;;;;;;;;;;21.87;58.38;101791.72;5035621;28;1977;-42
2021/09/29 07:10:44;;;;;;;;;;;;;;;21.83;58.92;101786.59;5039038;28;1990;-42
2021/09/29 07:13:11;;;;;;;;;;;;;;;21.90;58.52;101810.31;5051666;28;1723;-42
2021/09/29 07:15:41;;;;;;;;;;;;;;;21.88;58.68;101780.81;5036917;28;1027;-43
2021/09/29 07:18:09;;;;;;;;;;;;;;;21.90;58.46;101803.06;5043302;28;1847;-42
2021/09/29 07:20:48;;;;;;;;;;;;;;;21.84;58.20;101795.53;5048906;28;1403;-43
2021/09/29 07:23:18;;;;;;;;;;;;;;;21.89;58.88;101801.38;5047101;28;1598;-42
2021/09/29 07:25:48;;;;;;;;;;;;;;;21.87;58.81;101789.03;5048762;28;1694;-42
2021/09/29 07:28:18;;;;;;;;;;;;;;;21.87;58.06;101806.03;5041097;28;1711;-42
2021/09/29 07:30:46;;;;;;;;;;;;;;;21.83;58.69;101801.91;5044590;28;1583;-42
2021/09/29 07:33:14;;;;;;;;;;;;;;;21.84;58.56;101808.97;5022897;28;1741;-43
2021/09/29 07:35:46;;;;;;;;;;;;;;;21.84;58.84;101808.97;5049786;28;945;-42
2021/09/29 07:38:13;;;;;;;;;;;;;;;21.89;58.95;101822.94;5048662;28;1941;-42
2021/09/29 07:40:41;;;;;;;;;;;;;;;21.88;58.39;101825.75;5024650;28;1717;-42
2021/09/29 07:43:22;;;;;;;;;;;;;;;21.85;58.21;101806.16;5051516;28;1479;-43
2021/09/29 07:45:48;;;;;;;;;;;;;;;21.84;58.68;101801.78;5019494;28;1800;-42
2021/09/29 07:48:24;;;;;;;;;;;;;;;21.88;58.31;101825.75;5048693;28;1732;-42
2021/09/29 07:50:55;;;;;;;;;;;;;;;21.89;58.08;101822.09;5052915;28;1058;-43
2021/09/29 07:53:25;;;;;;;;;;;;;;;21.85;58.59;101810.72;5043788;28;1900;-42
2021/09/29 07:55:53;;;;;;;;;;;;;;;21.88;58.86;101809.59;5027777;28;1694;-41
2021/09/29 07:58:19;;;;;;;;;;;;;;;21.86;57.96;101820.47;5033027;28;1780;-42
2021/09/29 08:00:47;;;;;;;;;;;;;;;21.83;58.92;101802.75;5021324;28;1750;-42
2021/09/29 08:03:20;;;;;;;;;;;;;;;21.83;58.64;101794.66;5021328;28;1516;-42
2021/09/29 08:05:47;;;;;;;;;;;;;;;21.82;58.66;101811.78;5034112;28;1919;-42
2021/09/29 08:08:25;;;;;;;;;;;;;;;21.82;58.28;101819.88;5027980;28;1067;-42
2021/09/29 08:10:54;;;;;;;;;;;;;;;21.85;59.03;101816.09;5048636;28;1942;-42
2021/09/29 08:13:23;;;;;;;;;;;;;;;21.84;58.69;101815.25;5027575;28;1847;-41
2021/09/29 08:15:53;;;;;;;;;;;;;;;21.85;58.89;101816.94;5039487;28;1507;-42
2021/09/29 08:18:23;;;;;;;;;;;;;;;21.87;58.81;101818.66;5046636;28;1954;-42
2021/09/29 08:20:54;;;;;;;;;;;;;;;21.88;58.73;101831.13;5032380;28;1800;-42
2021/09/29 08:23:29;;;;;;;;;;;;;;;21.81;58.91;101815.50;5025684;28;1766;-42
2021/09/29 08:26:30;;;;;;;;;;;;;;;21.84;59.10;101828.72;5023134;28;1798;-42
2021/09/29 08:29:15;;;;;;;;;;;;;;;21.87;58.68;101819.50;5027102;28;1902;-42
2021/09/29 08:31:50;;;;;;;;;;;;;;;21.83;58.69;101824.28;5050787;28;1981;-42
2021/09/29 08:34:21;;;;;;;;;;;;;;;21.83;58.88;101826.97;5037334;28;1625;-42
2021/09/29 08:36:54;;;;;;;;;;;;;;;21.87;58.74;101824.06;5055260;28;1066;-42
2021/09/29 08:39:30;;;;;;;;;;;;;;;21.82;58.16;101827.09;5042135;28;2040;-42
2021/09/29 08:45:03;;;;;;;;;;;;;;;21.84;58.85;101828.72;5022438;28;1687;-42
2021/09/29 08:47:38;;;;;;;;;;;;;;;21.82;58.90;101827.94;5022793;28;1790;-42
2021/09/29 08:50:17;;;;;;;;;;;;;;;21.83;58.78;101835.06;5018603;28;1898;-42
2021/09/29 08:53:10;;;;;;;;;;;;;;;21.83;58.62;101829.69;5017698;28;1550;-42
2021/09/29 09:18:08;;;;;;;;;;;;;;;21.87;58.70;101837.50;5029960;28;1820;-42
2021/09/29 09:20:40;;;;;;;;;;;;;;;21.87;58.52;101824.06;5051334;28;1734;-41
2021/09/29 09:23:09;;;;;;;;;;;;;;;21.82;58.51;101825.25;5021424;28;1695;-42
2021/09/29 09:25:38;;;;;;;;;;;;;;;21.82;58.31;101827.09;5034743;28;1565;-42
2021/09/29 09:28:22;;;;;;;;;;;;;;;21.83;58.30;101837.75;5027003;28;1739;-42
2021/09/29 09:30:50;;;;;;;;;;;;;;;21.85;58.99;101835.78;5049527;28;2097;-42
2021/09/29 09:33:22;;;;;;;;;;;;;;;21.88;58.33;101825.75;5029827;28;1751;-42
2021/09/29 09:35:50;;;;;;;;;;;;;;;21.85;58.50;101827.72;5043227;28;1044;-42
2021/09/29 09:38:19;;;;;;;;;;;;;;;21.86;58.75;101825.88;5039548;28;1675;-42
2021/09/29 09:40:59;;;;;;;;;;;;;;;21.84;58.40;101831.41;5036184;28;1669;-42
2021/09/29 09:43:31;;;;;;;;;;;;;;;21.85;58.48;101835.78;5035698;28;1774;-42
2021/09/29 09:46:03;;;;;;;;;;;;;;;21.84;58.48;101836.78;5045975;28;1738;-41
2021/09/29 09:48:31;;;;;;;;;;;;;;;21.87;58.10;101835.66;5032079;28;1612;-42
2021/09/29 09:51:06;;;;;;;;;;;;;;;21.91;58.57;101836.28;5040686;28;1981;-42
2021/09/29 09:53:42;;;;;;;;;;;;;;;21.87;58.71;101829.44;5049248;28;1830;-42
2021/09/29 09:56:25;;;;;;;;;;;;;;;21.90;58.88;101839.94;5041398;28;1788;-43
2021/09/29 09:58:58;;;;;;;;;;;;;;;21.88;58.75;101834.66;5048040;28;1411;-42
2021/09/29 10:01:25;;;;;;;;;;;;;;;21.87;58.33;101840.19;5034118;28;1671;-42
2021/09/29 10:03:53;;;;;;;;;;;;;;;21.88;58.56;101841.91;5037085;28;1357;-41
2021/09/29 10:06:27;;;;;;;;;;;;;;;21.84;58.75;101826.03;5049404;28;1937;-42
2021/09/29 10:09:02;;;;;;;;;;;;;;;21.84;58.36;101836.78;5049644;28;1773;-42
2021/09/29 10:11:48;;;;;;;;;;;;;;;21.86;58.20;101831.25;5034312;28;1779;-42
2021/09/29 10:14:48;;;;;;;;;;;;;;;21.85;58.26;101819.63;5044482;28;1630;-42
2021/09/29 10:26:19;;;;;;;;;;;;;;;21.87;58.74;101842.91;5028985;28;1735;-42
2021/09/29 10:28:46;;;;;;;;;;;;;;;21.83;58.58;101826.97;5031222;28;1754;-42
2021/09/29 10:34:07;;;;;;;;;;;;;;;21.85;58.88;101833.09;5011245;28;2910;-42
2021/09/29 10:36:48;;;;;;;;;;;;;;;21.83;58.82;101832.38;5025238;28;1057;-42
2021/09/29 10:48:17;;;;;;;;;;;;;;;21.88;58.79;101836.50;5021738;28;1731;-42
2021/09/29 10:51:08;;;;;;;;;;;;;;;21.85;58.78;101838.47;5048415;28;1977;-43
2021/09/29 11:08:00;;;;;;;;;;;;;;;21.84;58.23;101836.78;5014386;28;1833;-42
2021/09/29 11:28:02;;;;;;;;;;;;;;;21.84;58.72;101812.56;5045543;28;795;-42
2021/09/29 11:33:24;;;;;;;;;;;;;;;21.87;58.14;101834.81;5016832;28;1796;-42
2021/09/29 11:35:59;;;;;;;;;;;;;;;21.83;58.83;101808.13;5039450;28;1126;-42
2021/09/29 12:09:29;;;;;;;;;;;;;;;21.89;58.62;101811.31;4977541;28;1983;-42
2021/09/29 12:12:10;;;;;;;;;;;;;;;21.88;58.87;101806.88;4993388;28;1650;-42
2021/09/29 12:14:38;;;;;;;;;;;;;;;21.85;58.48;101816.94;4994612;28;1879;-42
2021/09/29 12:17:08;;;;;;;;;;;;;;;21.88;58.42;101810.44;5016880;28;1977;-43
2021/09/29 12:19:48;;;;;;;;;;;;;;;21.86;58.19;101823.16;5020505;28;1720;-43
2021/09/29 12:22:19;;;;;;;;;;;;;;;21.87;58.49;101813.28;5027666;28;1400;-42
2021/09/29 12:24:48;;;;;;;;;;;;;;;21.89;58.71;101816.69;5023028;28;1714;-42
2021/09/29 12:27:31;;;;;;;;;;;;;;;21.84;58.25;101808.97;5019209;28;1834;-42
2021/09/29 12:30:03;;;;;;;;;;;;;;;21.83;58.72;101797.38;5041972;28;1906;-43
2021/09/29 12:35:19;;;;;;;;;;;;;;;21.84;58.49;101809.84;5024906;28;1842;-42
2021/09/29 12:37:57;;;;;;;;;;;;;;;21.85;58.58;101794.56;5019053;28;1834;-42
2021/09/29 12:40:34;;;;;;;;;;;;;;;21.89;58.25;101808.63;5016877;28;1877;-42
2021/09/29 12:43:05;;;;;;;;;;;;;;;21.88;58.45;101814.97;5016751;28;1775;-42
2021/09/29 12:45:37;;;;;;;;;;;;;;;21.85;58.56;101799.94;5032869;28;1653;-43
2021/09/29 12:48:13;;;;;;;;;;;;;;;21.84;58.90;101798.22;5015481;28;1128;-43
2021/09/29 12:50:48;;;;;;;;;;;;;;;21.89;58.74;101795.16;5041150;28;1906;-42
2021/09/29 12:53:19;;;;;;;;;;;;;;;21.86;58.74;101788.16;5037150;28;1903;-42
2021/09/29 12:55:54;;;;;;;;;;;;;;;21.88;58.86;101793.44;5045648;28;1783;-42
2021/09/29 12:58:28;;;;;;;;;;;;;;;21.91;58.33;101793.19;5034960;28;1675;-42
2021/09/29 13:01:00;;;;;;;;;;;;;;;21.84;58.83;101777.53;5041072;28;1830;-42
2021/09/29 13:03:28;;;;;;;;;;;;;;;21.87;58.29;101794.44;5019330;28;1566;-42
2021/09/29 13:05:59;;;;;;;;;;;;;;;21.85;58.46;101792.69;5030651;28;1047;-42
2021/09/29 13:08:36;;;;;;;;;;;;;;;21.84;58.85;101782.94;5028871;28;1676;-42
2021/09/29 13:11:04;;;;;;;;;;;;;;;21.89;59.03;101784.38;5016238;28;1972;-42
2021/09/29 13:13:36;;;;;;;;;;;;;;;21.89;58.44;101773.59;5031016;28;2228;-43
2021/09/29 13:16:05;;;;;;;;;;;;;;;21.85;58.97;101768.47;5033155;28;1063;-42
2021/09/29 13:18:41;;;;;;;;;;;;;;;21.89;58.98;101787.91;5022180;28;2034;-42
2021/09/29 13:21:15;;;;;;;;;;;;;;;21.83;58.64;101769.59;5035180;28;1739;-42
2021/09/29 13:23:47;;;;;;;;;;;;;;;21.82;58.87;101763.31;5018981;28;1745;-42
2021/09/29 13:37:37;;;;;;;;;;;;;;;21.88;58.63;101771.88;5034708;28;662;-42
2021/09/29 13:40:04;;;;;;;;;;;;;;;21.87;58.52;101770.19;5014564;28;1175;-42
2021/09/29 13:42:33;;;;;;;;;;;;;;;21.83;58.91;101756.97;5048934;28;2421;-42
2021/09/29 13:45:07;;;;;;;;;;;;;;;21.82;58.78;101765.19;5044889;28;1696;-42
2021/09/29 13:47:34;;;;;;;;;;;;;;;21.87;58.47;101765.66;5024045;28;1904;-42
2021/09/29 13:50:01;;;;;;;;;;;;;;;21.88;58.55;101769.19;5027873;28;1909;-41
2021/09/29 13:52:34;;;;;;;;;;;;;;;21.88;58.41;101764.66;5015602;28;1813;-43
2021/09/29 13:55:07;;;;;;;;;;;;;;;21.83;58.37;101743.50;5040263;28;997;-42
2021/09/29 13:57:39;;;;;;;;;;;;;;;21.83;58.08;101753.44;5043243;28;1933;-42
2021/09/29 14:03:04;;;;;;;;;;;;;;;21.87;58.56;101762.13;5028352;28;1867;-42
2021/09/29 14:30:11;;;;;;;;;;;;;;;21.81;58.87;101745.47;5021553;28;1915;-42
2021/09/29 14:32:50;;;;;;;;;;;;;;;21.83;58.82;101732.75;5028172;28;1531;-43
2021/09/29 14:35:17;;;;;;;;;;;;;;;21.81;58.80;101734.72;5040680;28;2405;-42
2021/09/29 14:37:43;;;;;;;;;;;;;;;21.82;58.85;101730.16;5040261;28;1058;-44
2021/09/29 14:40:10;;;;;;;;;;;;;;;21.81;59.02;101741.94;5022851;28;1836;-43
2021/09/29 14:42:36;;;;;;;;;;;;;;;21.82;58.86;101736.41;5035323;28;1949;-42
2021/09/29 14:45:03;;;;;;;;;;;;;;;21.82;58.87;101727.47;5029680;28;2055;-42
2021/09/29 14:47:29;;;;;;;;;;;;;;;21.85;58.68;101746.94;5029859;28;2005;-42
2021/09/29 14:49:57;;;;;;;;;;;;;;;21.82;58.28;101747.16;5036699;28;1947;-42
2021/09/29 14:52:24;;;;;;;;;;;;;;;21.79;58.87;101747.44;5023545;28;1906;-42
2021/09/29 14:54:50;;;;;;;;;;;;;;;21.81;58.81;101748.16;5023677;28;2131;-43
2021/09/29 14:57:17;;;;;;;;;;;;;;;21.80;58.58;101757.22;5039987;28;1773;-41
2021/09/29 14:59:44;;;;;;;;;;;;;;;21.78;58.94;101743.03;5040665;28;2006;-42
2021/09/29 15:02:11;;;;;;;;;;;;;;;21.82;59.05;101757.94;5043299;28;1722;-42
2021/09/29 15:04:37;;;;;;;;;;;;;;;21.80;58.68;101751.84;5043812;28;1763;-42
2021/09/29 15:07:05;;;;;;;;;;;;;;;21.79;58.35;101747.44;5040193;28;1130;-42
2021/09/29 15:09:32;;;;;;;;;;;;;;;21.80;59.03;101757.22;5029359;28;1855;-43
2021/09/29 15:11:59;;;;;;;;;;;;;;;21.82;59.13;101751.72;5020502;28;1899;-43
2021/09/29 15:14:29;;;;;;;;;;;;;;;21.80;59.10;101759.91;5025871;28;1739;-42
2021/09/29 15:16:59;;;;;;;;;;;;;;;21.78;58.68;101756.50;5031988;28;1756;-44
2021/09/29 15:19:41;;;;;;;;;;;;;;;21.79;58.89;101763.59;5024089;28;1123;-42
2021/09/29 15:22:22;;;;;;;;;;;;;;;21.79;58.82;101769.00;5046144;28;1050;-42
2021/09/29 15:24:56;;;;;;;;;;;;;;;21.81;58.79;101767.03;5023075;28;1871;-42
2021/09/29 15:30:15;;;;;;;;;;;;;;;21.76;58.58;101757.63;5022822;28;1828;-42
2021/09/29 15:49:25;;;;;;;;;;;;;;;21.74;59.17;101775.75;5027609;28;1596;-44
2021/09/29 15:52:02;;;;;;;;;;;;;;;21.74;59.03;101773.91;5035073;28;1973;-42
2021/09/29 15:54:36;;;;;;;;;;;;;;;21.73;58.69;101777.59;5032434;28;1992;-42
2021/09/29 16:00:30;;;;;;;;;;;;;;;21.74;58.63;101784.66;4964119;28;1769;-42
2021/09/29 16:03:02;;;;;;;;;;;;;;;21.72;58.98;101767.78;5023006;28;1552;-42
2021/09/29 16:05:40;;;;;;;;;;;;;;;21.74;58.98;101790.03;5033440;28;1980;-43
2021/09/29 16:08:19;;;;;;;;;;;;;;;21.73;58.99;101788.34;5020367;28;1565;-42